• Join FlightAware (Why Join?)
  • Login
  • US Flag 
01:29AM EDT


 

Airport Tracker/Info


-or-


 

Live Flight TrackerFlight Track Log ✈ THY1077 ✈ 25-Jul-2013 ✈ LTBA / IST - LATI / TIA

Flight Track Log - Related Links

Times and Time Zones

All times are in EDT time to prevent confusion due to time zone crossing. See the THY1077 flight status page for this flight to view local times or setup timezone preferences in your user account.

Time Position Orientation Groundspeed Altitude Reporting Facility
EDT Latitude Longitude Course Direction KTS MPH feet Rate Location/Type
12:30PM 41.0224 28.2904 277° West  Level Estimated
12:31PM 41.0334 28.1576 276° West  Level Estimated
12:32PM 41.0442 28.0248 276° West  Level Estimated
12:33PM 41.0549 27.8919 276° West  Level Estimated
12:34PM 41.0654 27.7590 276° West  Level Estimated
12:35PM 41.0758 27.6260 276° West  Level Estimated
12:36PM 41.0860 27.4930 276° West  Level Estimated
12:37PM 41.0961 27.3599 276° West  Level Estimated
12:38PM 41.1060 27.2268 276° West  Level Estimated
12:39PM 41.1158 27.0937 276° West  Level Estimated
12:40PM 41.1254 26.9605 276° West  Level Estimated
12:41PM 41.1348 26.8273 275° West  Level Estimated
12:42PM 41.1441 26.6941 275° West  Level Estimated
12:43PM 41.1533 26.5608 275° West  Level Estimated
12:44PM 41.1623 26.4275 275° West  Level Estimated
12:45PM 41.1711 26.2941 275° West  Level Estimated
12:46PM 41.1798 26.1607 275° West  Level Estimated
12:47PM 41.1884 26.0273 275° West  Level Estimated
12:48PM 41.1968 25.8939 275° West  Level Estimated
12:49PM 41.2050 25.7604 275° West  Level Estimated
12:50PM 41.2131 25.6268 275° West  Level Estimated
12:51PM 41.2210 25.4933 275° West  Level Estimated
12:52PM 41.2287 25.3597 274° West  Level Estimated
12:53PM 41.2364 25.2261 274° West  Level Estimated
12:54PM 41.2438 25.0924 274° West  Level Estimated
12:55PM 41.2511 24.9587 274° West  Level Estimated
12:56PM 41.2583 24.8250 274° West  Level Estimated
12:57PM 41.2653 24.6913 274° West  Level Estimated
12:58PM 41.2721 24.5575 274° West  Level Estimated
12:59PM 41.2788 24.4237 274° West  Level Estimated
01:00PM 41.2853 24.2899 274° West  Level Estimated
01:01PM 41.2917 24.1560 274° West  Level Estimated
01:02PM 41.2979 24.0221 274° West  Level Estimated
01:03PM 41.3040 23.8882 273° West  Level Estimated
01:04PM 41.3099 23.7543 273° West  Level Estimated
01:05PM 41.3156 23.6204 273° West  Level Estimated
01:06PM 41.3212 23.4864 273° West  Level Estimated
01:07PM 41.3266 23.3524 273° West  Level Estimated
01:08PM 41.3319 23.2184 273° West  Level Estimated
01:09PM 41.3371 23.0843 273° West  Level Estimated
01:10PM 41.3420 22.9503 273° West  Level Estimated
01:11PM 41.3469 22.8162 273° West  Level Estimated
01:12PM 41.3515 22.6821 273° West  Level Estimated
01:13PM 41.3560 22.5480 273° West  Level Estimated
01:14PM 41.3604 22.4138 273° West  Level Estimated
01:15PM 41.3646 22.2797 272° West  Level Estimated
01:16PM 41.3686 22.1455 272° West  Level Estimated
01:17PM 41.3725 22.0113 272° West  Level Estimated
01:18PM 41.3762 21.8771 272° West  Level Estimated
01:19PM 41.3798 21.7429 272° West  Level Estimated
01:20PM 41.3832 21.6086 272° West  Level Estimated
01:21PM 41.3865 21.4744 272° West  Level Estimated
01:22PM 41.3896 21.3401 272° West  Level Estimated
01:23PM 41.3926 21.2058 272° West  Level Estimated
01:24PM 41.3953 21.0716 272° West  Level Estimated
01:25PM 41.3980 20.9373 272° West  Level Estimated
01:26PM 41.4005 20.8029 271° West  Level Estimated
01:27PM 41.4028 20.6686 271° West  Level Estimated
01:28PM 41.4049 20.5343 271° West  Level Estimated
01:29PM 41.4070 20.4000 271° West  Level Estimated
01:30PM 41.4088 20.2656 271° West  Level Estimated
01:31PM 41.4105 20.1313 271° West  Level Estimated
01:32PM 41.4121 19.9969 271° West  Level Estimated
01:33PM 41.4134 19.8625 271° West  Level Estimated
01:34PM 41.4147 19.7281 271° West  Level Estimated
01:35PM 41.4147 19.7206 271° West  Level Estimated
01:36PM 41.4147 19.7206 21° North  Level Estimated
01:37PM 41.4147 19.7206 21° North  Level Estimated
01:38PM 41.4147 19.7206 21° North  Level Estimated
01:39PM 41.4147 19.7206 21° North  Level Estimated
01:40PM 41.4147 19.7206 21° North  Level Estimated
01:41PM 41.4147 19.7206 21° North  Level Estimated
01:42PM 41.4147 19.7206 21° North  Level Estimated
01:43PM 41.4147 19.7206 21° North  Level Estimated
01:44PM 41.4147 19.7206 21° North  Level Estimated